createdAt,value
2018-10-17T00:01:16.098Z,14.70
2018-10-17T00:03:44.885Z,14.60
2018-10-17T00:06:13.722Z,14.60
2018-10-17T00:08:42.626Z,14.50
2018-10-17T00:11:11.478Z,14.50
2018-10-17T00:13:40.263Z,14.60
2018-10-17T00:16:09.043Z,14.60
2018-10-17T00:18:37.825Z,14.50
2018-10-17T00:21:06.612Z,14.60
2018-10-17T00:23:35.411Z,14.60
2018-10-17T00:26:04.494Z,14.60
2018-10-17T00:28:33.688Z,14.60
2018-10-17T00:31:02.896Z,14.60
2018-10-17T00:33:31.716Z,14.60
2018-10-17T00:36:00.442Z,14.50
2018-10-17T00:38:29.207Z,14.40
2018-10-17T00:40:58.092Z,14.30
2018-10-17T00:43:26.907Z,14.30
2018-10-17T00:45:55.755Z,14.20
2018-10-17T00:48:24.570Z,14.20
2018-10-17T00:50:53.403Z,14.30
2018-10-17T00:53:22.187Z,14.20
2018-10-17T00:55:50.947Z,14.20
2018-10-17T00:58:19.723Z,14.10
2018-10-17T01:00:48.972Z,14.10
2018-10-17T01:03:17.761Z,14.10
2018-10-17T01:05:46.921Z,14.10
2018-10-17T01:08:15.741Z,14.10
2018-10-17T01:13:20.177Z,13.90
2018-10-17T01:15:48.904Z,14.30
2018-10-17T01:18:17.830Z,14.30
2018-10-17T01:20:46.584Z,14.30
2018-10-17T01:23:15.544Z,14.20
2018-10-17T01:25:44.213Z,14.30
2018-10-17T01:28:13.285Z,14.20
2018-10-17T01:30:42.055Z,14.30
2018-10-17T01:33:11.076Z,14.30
2018-10-17T01:35:39.883Z,14.20
2018-10-17T01:38:08.851Z,14.20
2018-10-17T01:40:37.702Z,14.20
2018-10-17T01:43:06.671Z,14.10
2018-10-17T01:45:35.460Z,14.10
2018-10-17T01:48:05.444Z,14.10
2018-10-17T01:50:34.428Z,14.10
2018-10-17T01:53:03.158Z,14.00
2018-10-17T01:58:11.138Z,14.00
2018-10-17T02:00:39.915Z,14.10
2018-10-17T02:03:08.751Z,14.00
2018-10-17T02:05:37.502Z,14.00
2018-10-17T02:08:06.276Z,14.00
2018-10-17T02:10:35.035Z,14.00
2018-10-17T02:13:05.329Z,14.00
2018-10-17T02:15:34.809Z,13.90
2018-10-17T02:18:03.595Z,13.90
2018-10-17T02:20:32.891Z,13.90
2018-10-17T02:23:01.854Z,13.80
2018-10-17T02:25:41.685Z,13.70
2018-10-17T02:28:10.500Z,13.70
2018-10-17T02:30:39.607Z,13.50
2018-10-17T02:33:08.448Z,13.60
2018-10-17T02:35:37.190Z,13.50
2018-10-17T02:38:06.047Z,13.60
2018-10-17T02:40:34.941Z,13.50
2018-10-17T02:43:03.754Z,13.60
2018-10-17T02:45:32.547Z,13.60
2018-10-17T02:48:01.378Z,13.70
2018-10-17T02:50:30.151Z,13.70
2018-10-17T02:52:59.053Z,13.70
2018-10-17T02:55:27.788Z,13.70
2018-10-17T02:57:56.622Z,13.60
2018-10-17T03:00:25.448Z,13.60
2018-10-17T03:02:54.452Z,13.60
2018-10-17T03:05:23.169Z,13.70
2018-10-17T03:07:52.080Z,13.70
2018-10-17T03:10:20.957Z,13.60
2018-10-17T03:12:50.317Z,13.60
2018-10-17T03:15:19.062Z,13.50
2018-10-17T03:17:48.021Z,13.50
2018-10-17T03:20:16.798Z,13.60
2018-10-17T03:22:45.900Z,13.70
2018-10-17T03:25:14.690Z,13.80
2018-10-17T03:27:43.502Z,13.70
2018-10-17T03:30:12.290Z,13.60
2018-10-17T03:32:41.670Z,13.60
2018-10-17T03:35:10.518Z,13.60
2018-10-17T03:37:40.236Z,13.50
2018-10-17T03:40:09.057Z,13.50
2018-10-17T03:42:38.341Z,13.50
2018-10-17T03:45:07.697Z,13.50
2018-10-17T03:47:36.421Z,13.50
2018-10-17T03:50:05.524Z,13.40
2018-10-17T03:52:34.304Z,13.40
2018-10-17T03:55:03.183Z,13.40
2018-10-17T03:57:31.916Z,13.40
2018-10-17T04:00:00.896Z,13.40
2018-10-17T04:02:29.764Z,13.50
2018-10-17T04:04:59.328Z,13.40
2018-10-17T04:07:28.064Z,13.40
2018-10-17T04:09:57.341Z,13.30
2018-10-17T04:12:26.093Z,13.30
2018-10-17T04:14:54.839Z,13.30
2018-10-17T04:17:23.626Z,13.20
2018-10-17T04:19:52.450Z,13.20
2018-10-17T04:22:21.210Z,13.20
2018-10-17T04:24:50.102Z,13.20
2018-10-17T04:27:18.882Z,13.10
2018-10-17T04:29:48.766Z,13.20
2018-10-17T04:32:17.581Z,13.20
2018-10-17T04:34:46.755Z,13.10
2018-10-17T04:37:15.855Z,13.10
2018-10-17T04:39:44.696Z,13.10
2018-10-17T04:42:16.075Z,13.00
2018-10-17T04:44:45.224Z,13.00
2018-10-17T04:47:14.207Z,12.80
2018-10-17T04:49:42.953Z,12.70
2018-10-17T04:52:12.846Z,12.70
2018-10-17T04:54:41.650Z,12.60
2018-10-17T04:57:10.438Z,12.50
2018-10-17T04:59:39.263Z,12.50
2018-10-17T05:02:08.338Z,12.60
2018-10-17T05:04:37.411Z,12.60
2018-10-17T05:07:06.349Z,12.60
2018-10-17T05:09:35.145Z,12.60
2018-10-17T05:12:04.138Z,12.60
2018-10-17T05:14:33.047Z,12.60
2018-10-17T05:17:02.729Z,12.60
2018-10-17T05:19:31.646Z,12.60
2018-10-17T05:22:00.400Z,12.70
2018-10-17T05:24:29.299Z,12.60
2018-10-17T05:26:58.077Z,12.60
2018-10-17T05:29:26.924Z,12.60
2018-10-17T05:31:55.785Z,12.70
2018-10-17T05:34:24.547Z,12.70
2018-10-17T05:36:53.327Z,12.80
2018-10-17T05:39:22.142Z,12.70
2018-10-17T05:41:50.949Z,12.70
2018-10-17T05:44:19.730Z,12.80
2018-10-17T05:46:48.651Z,12.80
2018-10-17T05:49:17.391Z,12.80
2018-10-17T05:51:46.244Z,12.80
2018-10-17T05:54:15.006Z,12.90
2018-10-17T05:56:44.237Z,13.00
2018-10-17T05:59:12.989Z,13.10
2018-10-17T06:01:41.925Z,13.20
2018-10-17T06:04:10.622Z,13.30
2018-10-17T06:06:39.616Z,13.50
2018-10-17T06:09:10.136Z,13.90
2018-10-17T06:11:38.882Z,14.80
2018-10-17T06:14:10.868Z,15.80
2018-10-17T06:16:40.193Z,16.80
2018-10-17T06:19:08.989Z,17.80
2018-10-17T06:21:39.364Z,18.70
2018-10-17T06:24:08.432Z,19.60
2018-10-17T06:26:39.988Z,20.40
2018-10-17T06:29:10.212Z,20.90
2018-10-17T06:31:39.001Z,21.40
2018-10-17T06:34:08.028Z,21.90
2018-10-17T06:36:36.825Z,22.50
2018-10-17T06:39:09.600Z,23.00
2018-10-17T06:41:38.640Z,23.40
2018-10-17T06:44:07.997Z,23.70
2018-10-17T06:46:36.682Z,24.10
2018-10-17T06:49:05.819Z,24.50
2018-10-17T06:51:34.473Z,24.70
2018-10-17T06:54:03.508Z,25.00
2018-10-17T06:56:32.194Z,25.40
2018-10-17T06:59:01.121Z,26.00
2018-10-17T07:01:29.864Z,26.50
2018-10-17T07:03:59.592Z,27.20
2018-10-17T07:06:28.351Z,27.80
2018-10-17T07:08:58.126Z,28.50
2018-10-17T07:11:26.898Z,28.70
2018-10-17T07:13:56.277Z,29.00
2018-10-17T07:16:25.103Z,29.20
2018-10-17T07:18:54.216Z,29.10
2018-10-17T07:21:22.954Z,28.80
2018-10-17T07:23:51.871Z,28.10
2018-10-17T07:26:21.251Z,28.10
2018-10-17T07:28:50.767Z,28.60
2018-10-17T07:31:19.415Z,29.20
2018-10-17T07:33:48.258Z,29.90
2018-10-17T07:36:17.096Z,30.20
2018-10-17T07:38:46.709Z,30.60
2018-10-17T07:41:15.897Z,29.80
2018-10-17T07:43:44.972Z,29.70
2018-10-17T07:46:13.930Z,29.40
2018-10-17T07:48:42.890Z,28.90
2018-10-17T07:51:11.707Z,27.80
2018-10-17T07:53:40.570Z,26.40
2018-10-17T07:56:09.580Z,25.50
2018-10-17T07:58:38.371Z,24.80
2018-10-17T08:01:07.803Z,24.20
2018-10-17T08:03:36.592Z,23.90
2018-10-17T08:06:06.270Z,23.50
2018-10-17T08:08:35.002Z,23.30
2018-10-17T08:11:03.795Z,23.20
2018-10-17T08:13:33.241Z,23.00
2018-10-17T08:16:02.697Z,22.70
2018-10-17T08:18:31.590Z,22.50
2018-10-17T08:21:00.386Z,22.20
2018-10-17T08:23:29.262Z,22.20
2018-10-17T08:25:58.069Z,21.90
2018-10-17T08:28:26.926Z,21.90
2018-10-17T08:30:55.829Z,21.50
2018-10-17T08:33:24.943Z,21.30
2018-10-17T08:35:53.815Z,21.00
2018-10-17T08:38:23.668Z,20.90
2018-10-17T08:40:52.469Z,20.90
2018-10-17T08:43:21.348Z,20.70
2018-10-17T08:45:50.365Z,21.00
2018-10-17T08:48:19.617Z,21.30
2018-10-17T08:50:48.485Z,21.20
2018-10-17T08:53:17.213Z,21.20
2018-10-17T08:55:46.499Z,21.50
2018-10-17T08:58:15.466Z,21.70
2018-10-17T09:00:44.577Z,22.00
2018-10-17T09:03:13.619Z,22.20
2018-10-17T09:05:42.449Z,22.50
2018-10-17T09:08:11.489Z,22.80
2018-10-17T09:10:41.021Z,23.00
2018-10-17T09:13:10.354Z,23.20
2018-10-17T09:15:39.420Z,23.20
2018-10-17T09:18:08.164Z,23.20
2018-10-17T09:20:37.179Z,23.30
2018-10-17T09:23:13.341Z,23.40
2018-10-17T09:25:42.207Z,23.40
2018-10-17T09:28:12.739Z,23.60
2018-10-17T09:30:47.988Z,23.20
2018-10-17T09:33:17.653Z,23.10
2018-10-17T09:35:46.544Z,23.30
2018-10-17T09:38:15.587Z,23.20
2018-10-17T09:40:44.434Z,23.30
2018-10-17T09:43:13.374Z,23.40
2018-10-17T09:45:43.450Z,23.30
2018-10-17T09:48:12.181Z,23.40
2018-10-17T09:53:22.090Z,23.90
2018-10-17T09:55:53.951Z,24.10
2018-10-17T09:58:26.917Z,24.40
2018-10-17T10:01:03.931Z,24.70
2018-10-17T10:03:42.121Z,24.90
2018-10-17T10:06:21.584Z,25.00
2018-10-17T10:08:58.281Z,25.20
2018-10-17T10:11:29.973Z,25.40
2018-10-17T10:14:00.542Z,25.50
2018-10-17T10:16:30.696Z,25.40
2018-10-17T10:19:00.227Z,25.10
2018-10-17T10:21:29.770Z,25.00
2018-10-17T10:23:59.554Z,24.90
2018-10-17T10:26:28.323Z,25.00
2018-10-17T10:28:59.006Z,25.00
2018-10-17T10:31:29.847Z,24.90
2018-10-17T10:34:01.019Z,25.00
2018-10-17T10:36:34.567Z,24.80
2018-10-17T10:39:07.942Z,24.70
2018-10-17T10:41:38.011Z,24.30
2018-10-17T10:44:07.155Z,24.20
2018-10-17T10:46:36.160Z,24.30
2018-10-17T10:49:05.844Z,24.40
2018-10-17T10:51:34.885Z,24.50
2018-10-17T10:54:03.757Z,24.40
2018-10-17T10:56:32.914Z,24.40
2018-10-17T10:59:03.097Z,24.20
2018-10-17T11:01:32.032Z,24.10
2018-10-17T11:04:02.280Z,24.20
2018-10-17T11:09:11.270Z,24.20
2018-10-17T11:11:43.726Z,24.30
2018-10-17T11:14:18.030Z,24.20
2018-10-17T11:16:52.087Z,24.40
2018-10-17T11:19:21.240Z,24.50
2018-10-17T11:21:50.131Z,23.80
2018-10-17T11:24:20.397Z,23.90
2018-10-17T11:26:49.606Z,24.20
2018-10-17T11:29:26.513Z,24.00
2018-10-17T11:31:57.279Z,23.90
2018-10-17T11:34:26.201Z,24.00
2018-10-17T11:36:56.834Z,24.30
2018-10-17T11:39:28.857Z,24.60
2018-10-17T11:41:59.155Z,24.90
2018-10-17T11:44:28.041Z,24.90
2018-10-17T11:46:57.080Z,25.00
2018-10-17T11:49:25.873Z,24.50
2018-10-17T11:51:54.718Z,24.60
2018-10-17T11:54:24.496Z,24.60
2018-10-17T11:56:53.375Z,23.90
2018-10-17T11:59:22.334Z,23.10
2018-10-17T12:01:51.238Z,22.80
2018-10-17T12:04:20.341Z,23.10
2018-10-17T12:06:48.890Z,23.20
2018-10-17T12:09:17.822Z,23.30
2018-10-17T12:11:46.680Z,23.50
2018-10-17T12:14:15.370Z,23.50
2018-10-17T12:16:44.142Z,23.60
2018-10-17T12:19:13.132Z,23.60
2018-10-17T12:21:42.101Z,23.60
2018-10-17T12:24:10.864Z,23.40
2018-10-17T12:26:39.647Z,23.60
2018-10-17T12:29:08.441Z,23.70
2018-10-17T12:31:37.257Z,23.70
2018-10-17T12:34:06.057Z,23.80
2018-10-17T12:36:34.824Z,24.10
2018-10-17T12:39:05.510Z,24.20
2018-10-17T12:41:34.242Z,24.20
2018-10-17T12:44:02.985Z,24.30
2018-10-17T12:46:33.099Z,24.50
2018-10-17T12:49:02.034Z,24.50
2018-10-17T12:51:30.740Z,24.20
2018-10-17T12:53:59.580Z,24.00
2018-10-17T12:56:29.425Z,23.60
2018-10-17T12:58:58.147Z,23.40
2018-10-17T13:01:26.877Z,23.50
2018-10-17T13:03:58.989Z,23.30
2018-10-17T13:06:27.755Z,23.30
2018-10-17T13:08:56.664Z,23.40
2018-10-17T13:11:25.462Z,23.50
2018-10-17T13:13:54.309Z,23.60
2018-10-17T13:16:23.305Z,23.70
2018-10-17T13:18:52.296Z,23.70
2018-10-17T13:21:21.354Z,23.70
2018-10-17T13:23:52.209Z,23.70
2018-10-17T13:26:21.118Z,23.60
2018-10-17T13:28:50.100Z,23.50
2018-10-17T13:33:57.796Z,23.40
2018-10-17T13:36:26.521Z,23.40
2018-10-17T13:38:55.379Z,23.00
2018-10-17T13:41:24.241Z,22.60
2018-10-17T13:43:53.046Z,22.10
2018-10-17T13:46:21.905Z,22.00
2018-10-17T13:48:50.703Z,21.90
2018-10-17T13:51:19.495Z,21.70
2018-10-17T13:53:48.515Z,21.20
2018-10-17T13:56:17.397Z,21.20
2018-10-17T13:58:46.195Z,21.30
2018-10-17T14:01:15.179Z,21.60
2018-10-17T14:06:25.413Z,22.00
2018-10-17T14:08:54.731Z,22.10
2018-10-17T14:11:23.762Z,22.20
2018-10-17T14:13:53.114Z,21.90
2018-10-17T14:16:21.978Z,21.40
2018-10-17T14:18:50.910Z,20.90
2018-10-17T14:21:23.741Z,20.80
2018-10-17T14:23:52.629Z,20.90
2018-10-17T14:29:01.567Z,20.60
2018-10-17T14:31:30.629Z,20.80
2018-10-17T14:34:01.945Z,20.70
2018-10-17T14:36:31.520Z,20.60
2018-10-17T14:39:00.745Z,20.50
2018-10-17T14:41:30.335Z,20.50
2018-10-17T14:43:59.472Z,20.60
2018-10-17T14:46:28.840Z,20.70
2018-10-17T14:48:58.130Z,20.50
2018-10-17T14:51:27.945Z,20.30
2018-10-17T14:53:56.745Z,19.90
2018-10-17T14:56:26.048Z,19.80
2018-10-17T14:58:55.058Z,19.80
2018-10-17T15:01:24.217Z,19.80
2018-10-17T15:03:53.066Z,19.70
2018-10-17T15:06:21.850Z,19.80
2018-10-17T15:08:50.609Z,19.90
2018-10-17T15:11:19.491Z,20.00
2018-10-17T15:13:49.226Z,20.10
2018-10-17T15:16:21.220Z,20.10
2018-10-17T15:18:53.594Z,20.00
2018-10-17T15:21:22.771Z,20.00
2018-10-17T15:23:51.618Z,19.90
2018-10-17T15:26:26.496Z,19.90
2018-10-17T15:28:56.069Z,19.80
2018-10-17T15:31:24.979Z,19.80
2018-10-17T15:33:53.929Z,19.70
2018-10-17T15:36:22.763Z,19.60
2018-10-17T15:38:51.659Z,19.60
2018-10-17T15:41:21.022Z,19.40
2018-10-17T15:43:50.004Z,19.30
2018-10-17T15:46:18.969Z,19.30
2018-10-17T15:48:47.785Z,19.10
2018-10-17T15:51:16.665Z,19.00
2018-10-17T15:53:45.627Z,18.90
2018-10-17T15:56:14.910Z,18.80
2018-10-17T15:58:44.175Z,18.90
2018-10-17T16:01:13.083Z,18.80
2018-10-17T16:03:41.925Z,18.80
2018-10-17T16:06:10.844Z,18.70
2018-10-17T16:08:39.684Z,18.60
2018-10-17T16:11:08.816Z,18.50
2018-10-17T16:13:37.688Z,18.60
2018-10-17T16:16:06.542Z,18.50
2018-10-17T16:18:35.685Z,18.40
2018-10-17T16:21:04.767Z,18.40
2018-10-17T16:23:33.617Z,18.30
2018-10-17T16:26:02.385Z,18.30
2018-10-17T16:28:31.216Z,18.30
2018-10-17T16:31:00.127Z,18.30
2018-10-17T16:33:29.578Z,18.20
2018-10-17T16:35:58.448Z,18.20
2018-10-17T16:38:27.726Z,18.10
2018-10-17T16:40:56.767Z,18.00
2018-10-17T16:43:25.916Z,17.90
2018-10-17T16:45:54.859Z,17.90
2018-10-17T16:48:24.076Z,17.90
2018-10-17T16:50:53.135Z,17.90
2018-10-17T16:53:22.701Z,17.90
2018-10-17T16:59:29.384Z,17.80
2018-10-17T17:01:59.234Z,17.70
2018-10-17T17:04:28.434Z,17.70
2018-10-17T17:06:57.652Z,17.60
2018-10-17T17:09:26.622Z,17.60
2018-10-17T17:11:56.071Z,17.50
2018-10-17T17:14:25.756Z,17.30
2018-10-17T17:16:59.285Z,17.20
2018-10-17T17:19:35.959Z,17.00
2018-10-17T17:22:06.319Z,16.80
2018-10-17T17:24:51.059Z,16.50
2018-10-17T17:27:21.372Z,16.40
2018-10-17T17:29:50.810Z,16.40
2018-10-17T17:32:19.915Z,16.50
2018-10-17T17:34:49.064Z,16.50
2018-10-17T17:37:19.349Z,16.60
2018-10-17T17:39:48.238Z,16.70
2018-10-17T17:42:17.164Z,16.70
2018-10-17T17:44:46.057Z,16.80
2018-10-17T17:47:14.898Z,16.90
2018-10-17T17:49:43.706Z,16.90
2018-10-17T17:52:12.550Z,17.00
2018-10-17T17:54:41.421Z,17.00
2018-10-17T17:57:11.057Z,17.00
2018-10-17T17:59:39.878Z,16.90
2018-10-17T18:02:08.768Z,16.80
2018-10-17T18:04:44.429Z,16.80
2018-10-17T18:07:13.357Z,16.80
2018-10-17T18:09:42.252Z,16.90
2018-10-17T18:12:11.044Z,16.90
2018-10-17T18:14:39.817Z,16.90
2018-10-17T18:17:08.639Z,16.90
2018-10-17T18:19:37.832Z,16.80
2018-10-17T18:22:07.176Z,16.80
2018-10-17T18:24:35.970Z,16.80
2018-10-17T18:27:07.096Z,16.80
2018-10-17T18:29:37.500Z,16.70
2018-10-17T18:33:09.948Z,16.70
2018-10-17T18:35:39.105Z,16.70
2018-10-17T18:38:08.269Z,16.70
2018-10-17T18:40:37.283Z,16.70
2018-10-17T18:43:06.145Z,16.70
2018-10-17T18:45:34.999Z,16.70
2018-10-17T18:48:04.802Z,16.50
2018-10-17T18:50:34.144Z,16.40
2018-10-17T18:53:05.611Z,16.40
2018-10-17T18:55:34.481Z,16.20
2018-10-17T18:58:03.332Z,16.30
2018-10-17T19:00:32.526Z,16.30
2018-10-17T19:03:01.651Z,16.30
2018-10-17T19:05:30.780Z,16.30
2018-10-17T19:07:59.654Z,16.20
2018-10-17T19:10:28.413Z,16.20
2018-10-17T19:12:57.164Z,16.20
2018-10-17T19:15:26.093Z,16.00
2018-10-17T19:17:55.873Z,16.10
2018-10-17T19:20:25.186Z,16.10
2018-10-17T19:22:54.606Z,16.10
2018-10-17T19:25:23.827Z,16.00
2018-10-17T19:27:53.553Z,15.80
2018-10-17T19:30:22.468Z,15.80
2018-10-17T19:32:51.158Z,15.80
2018-10-17T19:35:20.440Z,15.70
2018-10-17T19:37:49.184Z,15.70
2018-10-17T19:40:18.036Z,15.70
2018-10-17T19:42:47.620Z,15.60
2018-10-17T19:45:16.614Z,15.50
2018-10-17T19:47:46.173Z,15.50
2018-10-17T19:50:21.927Z,15.40
2018-10-17T19:52:50.669Z,15.10
2018-10-17T19:55:19.511Z,14.80
2018-10-17T19:57:49.683Z,14.70
2018-10-17T20:00:18.457Z,14.70
2018-10-17T20:02:47.780Z,14.50
2018-10-17T20:05:17.493Z,14.40
2018-10-17T20:07:46.259Z,14.50
2018-10-17T20:10:15.904Z,14.60
2018-10-17T20:12:44.897Z,14.50
2018-10-17T20:15:16.095Z,14.50
2018-10-17T20:17:48.997Z,14.60
2018-10-17T20:20:18.049Z,14.70
2018-10-17T20:22:48.268Z,14.70
2018-10-17T20:25:17.759Z,14.70
2018-10-17T20:27:48.513Z,14.80
2018-10-17T20:30:20.673Z,14.90
2018-10-17T20:32:49.619Z,14.90
2018-10-17T20:35:19.118Z,14.80
2018-10-17T20:37:47.905Z,14.80
2018-10-17T20:40:17.741Z,14.90
2018-10-17T20:42:46.607Z,14.90
2018-10-17T20:45:15.620Z,15.00
2018-10-17T20:47:44.820Z,15.00
2018-10-17T20:50:13.968Z,14.90
2018-10-17T20:55:18.092Z,15.00
2018-10-17T20:57:51.845Z,14.90
2018-10-17T21:00:23.846Z,14.90
2018-10-17T21:02:54.614Z,15.00
2018-10-17T21:05:23.736Z,15.00
2018-10-17T21:07:52.823Z,15.00
2018-10-17T21:10:26.237Z,15.00
2018-10-17T21:12:55.840Z,15.00
2018-10-17T21:15:25.198Z,15.00
2018-10-17T21:17:55.114Z,15.00
2018-10-17T21:20:25.595Z,15.00
2018-10-17T21:22:55.075Z,15.00
2018-10-17T21:25:24.144Z,15.00
2018-10-17T21:27:56.865Z,15.00
2018-10-17T21:30:25.691Z,15.00
2018-10-17T21:35:37.624Z,15.00
2018-10-17T21:40:43.789Z,14.90
2018-10-17T21:43:12.751Z,14.80
2018-10-17T21:45:43.018Z,14.70
2018-10-17T21:48:12.033Z,14.80
2018-10-17T21:50:41.128Z,14.80
2018-10-17T21:53:10.389Z,14.80
2018-10-17T21:55:41.357Z,14.90
2018-10-17T21:58:11.419Z,14.90
2018-10-17T22:00:40.442Z,14.90
2018-10-17T22:03:09.430Z,14.90
2018-10-17T22:05:38.234Z,14.90
2018-10-17T22:08:07.403Z,14.80
2018-10-17T22:10:36.748Z,14.60
2018-10-17T22:13:05.785Z,14.60
2018-10-17T22:15:36.761Z,14.60
2018-10-17T22:18:06.709Z,14.60
2018-10-17T22:20:35.883Z,14.60
2018-10-17T22:23:04.963Z,14.60
2018-10-17T22:25:33.940Z,14.60
2018-10-17T22:28:03.075Z,14.60
2018-10-17T22:33:09.491Z,14.60
2018-10-17T22:35:39.723Z,14.50
2018-10-17T22:38:09.917Z,14.50
2018-10-17T22:40:39.144Z,14.60
2018-10-17T22:43:09.450Z,14.50
2018-10-17T22:45:38.389Z,14.40
2018-10-17T22:48:07.530Z,14.30
2018-10-17T22:50:36.436Z,14.30
2018-10-17T22:53:10.700Z,14.20
2018-10-17T22:55:39.630Z,14.20
2018-10-17T22:58:08.540Z,14.30
2018-10-17T23:00:37.367Z,14.30
2018-10-17T23:03:06.302Z,14.20
2018-10-17T23:05:35.192Z,14.20
2018-10-17T23:08:04.112Z,14.20
2018-10-17T23:10:32.913Z,14.20
2018-10-17T23:13:01.821Z,14.20
2018-10-17T23:15:31.224Z,14.10
2018-10-17T23:18:00.116Z,14.10
2018-10-17T23:20:29.502Z,14.00
2018-10-17T23:22:58.321Z,14.00
2018-10-17T23:25:28.399Z,14.10
2018-10-17T23:27:57.356Z,14.10
2018-10-17T23:30:26.310Z,14.10
2018-10-17T23:35:33.795Z,14.10
2018-10-17T23:38:02.803Z,14.10
2018-10-17T23:40:31.664Z,14.10
2018-10-17T23:43:00.982Z,14.10
2018-10-17T23:45:29.845Z,14.10
2018-10-17T23:47:58.816Z,14.20
2018-10-17T23:50:27.567Z,14.10
2018-10-17T23:52:56.330Z,14.10
2018-10-17T23:55:25.967Z,14.10
2018-10-17T23:57:54.786Z,14.00
